createdAt,value
2023-04-11T00:01:12.976Z,96171.03
2023-04-11T00:03:41.685Z,96167.56
2023-04-11T00:06:10.685Z,96166.56
2023-04-11T00:08:39.019Z,96161.91
2023-04-11T00:11:10.565Z,96157.13
2023-04-11T00:13:40.260Z,96155.50
2023-04-11T00:16:10.304Z,96148.53
2023-04-11T00:18:39.528Z,96144.25
2023-04-11T00:21:10.328Z,96144.25
2023-04-11T00:23:38.843Z,96127.56
2023-04-11T00:26:09.496Z,96127.56
2023-04-11T00:28:37.868Z,96117.19
2023-04-11T00:31:09.503Z,96115.34
2023-04-11T00:33:39.238Z,96120.81
2023-04-11T00:36:11.700Z,96106.94
2023-04-11T00:38:40.243Z,96107.25
2023-04-11T00:41:10.750Z,96121.81
2023-04-11T00:43:39.153Z,96111.41
2023-04-11T00:46:10.565Z,96118.53
2023-04-11T00:48:39.233Z,96117.53
2023-04-11T00:51:16.417Z,96125.47
2023-04-11T00:53:46.258Z,96117.34
2023-04-11T00:56:14.895Z,96106.44
2023-04-11T00:58:43.752Z,96105.28
2023-04-11T01:01:16.696Z,96113.19
2023-04-11T01:03:45.928Z,96101.47
2023-04-11T01:06:16.620Z,96085.44
2023-04-11T01:08:47.106Z,96079.16
2023-04-11T01:11:20.077Z,96071.22
2023-04-11T01:13:51.118Z,96069.91
2023-04-11T01:16:21.670Z,96072.91
2023-04-11T01:18:50.670Z,96079.19
2023-04-11T01:21:20.896Z,96083.31
2023-04-11T01:23:52.863Z,96068.25
2023-04-11T01:26:21.476Z,96066.47
2023-04-11T01:28:49.850Z,96075.22
2023-04-11T01:31:18.421Z,96068.25
2023-04-11T01:33:46.917Z,96066.63
2023-04-11T01:36:15.420Z,96069.09
2023-04-11T01:38:43.871Z,96072.56
2023-04-11T01:41:14.676Z,96070.91
2023-04-11T01:43:43.568Z,96079.69
2023-04-11T01:46:13.922Z,96072.72
2023-04-11T01:48:43.079Z,96080.66
2023-04-11T01:51:13.596Z,96075.53
2023-04-11T01:53:42.020Z,96086.13
2023-04-11T01:56:13.904Z,96075.53
2023-04-11T01:58:42.660Z,96082.66
2023-04-11T02:01:13.372Z,96086.13
2023-04-11T02:03:41.962Z,96080.50
2023-04-11T02:06:13.832Z,96098.00
2023-04-11T02:08:42.166Z,96083.78
2023-04-11T02:11:14.515Z,96082.13
2023-04-11T02:13:42.899Z,96086.44
2023-04-11T02:16:25.768Z,96076.84
2023-04-11T02:18:54.856Z,96076.69
2023-04-11T02:21:23.574Z,96079.31
2023-04-11T02:23:51.990Z,96072.03
2023-04-11T02:26:21.781Z,96076.50
2023-04-11T02:28:50.357Z,96059.66
2023-04-11T02:31:18.947Z,96068.25
2023-04-11T02:33:47.418Z,96072.19
2023-04-11T02:36:15.839Z,96057.63
2023-04-11T02:38:44.217Z,96049.53
2023-04-11T02:41:14.018Z,96057.44
2023-04-11T02:43:43.782Z,96048.66
2023-04-11T02:46:15.166Z,96040.75
2023-04-11T02:48:43.576Z,96046.69
2023-04-11T02:51:12.789Z,96035.44
2023-04-11T02:53:41.201Z,96028.88
2023-04-11T02:56:13.225Z,96019.63
2023-04-11T02:58:43.292Z,96028.59
2023-04-11T03:01:14.686Z,96015.88
2023-04-11T03:03:43.213Z,96015.38
2023-04-11T03:06:14.776Z,95997.91
2023-04-11T03:08:47.533Z,95999.72
2023-04-11T03:11:15.912Z,95988.31
2023-04-11T03:13:46.177Z,95983.03
2023-04-11T03:16:14.773Z,95976.75
2023-04-11T03:18:43.214Z,95974.94
2023-04-11T03:21:13.147Z,95978.91
2023-04-11T03:23:41.497Z,95964.25
2023-04-11T03:26:12.114Z,95970.34
2023-04-11T03:28:40.537Z,95956.66
2023-04-11T03:31:11.757Z,95957.66
2023-04-11T03:33:40.287Z,95970.88
2023-04-11T03:36:09.529Z,95956.81
2023-04-11T03:38:38.040Z,95959.47
2023-04-11T03:41:07.128Z,95970.03
2023-04-11T03:43:35.443Z,95967.22
2023-04-11T03:46:03.938Z,95955.00
2023-04-11T03:48:33.692Z,95963.59
2023-04-11T03:51:02.073Z,95948.88
2023-04-11T03:53:30.598Z,95953.34
2023-04-11T03:55:58.966Z,95941.16
2023-04-11T03:58:27.298Z,95939.16
2023-04-11T04:00:56.011Z,95918.81
2023-04-11T04:03:24.664Z,95936.31
2023-04-11T04:05:54.535Z,95928.59
2023-04-11T04:08:23.211Z,95945.44
2023-04-11T04:10:51.605Z,95912.91
2023-04-11T04:13:19.954Z,95927.94
2023-04-11T04:15:58.449Z,95929.25
2023-04-11T04:18:26.930Z,95921.53
2023-04-11T04:20:56.642Z,95921.34
2023-04-11T04:23:25.972Z,95920.34
2023-04-11T04:25:54.450Z,95920.34
2023-04-11T04:28:22.849Z,95918.34
2023-04-11T04:30:54.137Z,95945.75
2023-04-11T04:33:22.693Z,95912.41
2023-04-11T04:35:52.493Z,95925.09
2023-04-11T04:38:22.597Z,95924.13
2023-04-11T04:40:54.753Z,95916.34
2023-04-11T04:43:27.337Z,95917.38
2023-04-11T04:45:56.087Z,95928.09
2023-04-11T04:48:25.829Z,95956.16
2023-04-11T04:50:54.281Z,95929.75
2023-04-11T04:53:23.986Z,95926.75
2023-04-11T04:55:52.292Z,95915.66
2023-04-11T04:58:20.727Z,95903.06
2023-04-11T05:00:50.710Z,95911.66
2023-04-11T05:03:20.932Z,95917.78
2023-04-11T05:05:49.656Z,95915.31
2023-04-11T05:08:20.628Z,95924.22
2023-04-11T05:10:50.395Z,95919.78
2023-04-11T05:13:18.759Z,95922.44
2023-04-11T05:15:51.207Z,95905.06
2023-04-11T05:18:19.580Z,95904.59
2023-04-11T05:20:47.993Z,95903.31
2023-04-11T05:23:16.579Z,95900.19
2023-04-11T05:25:44.937Z,95901.84
2023-04-11T05:28:15.601Z,95899.22
2023-04-11T05:30:44.158Z,95912.25
2023-04-11T05:33:15.078Z,95925.31
2023-04-11T05:35:43.590Z,95923.09
2023-04-11T05:38:14.385Z,95942.25
2023-04-11T05:40:42.729Z,95936.16
2023-04-11T05:43:15.009Z,95939.59
2023-04-11T05:45:47.637Z,95984.69
2023-04-11T05:48:16.551Z,95993.44
2023-04-11T05:50:44.893Z,96002.53
2023-04-11T05:53:14.879Z,96008.00
2023-04-11T05:55:43.249Z,95991.97
2023-04-11T05:58:14.829Z,95991.25
2023-04-11T06:00:46.078Z,95997.69
2023-04-11T06:03:15.820Z,96005.25
2023-04-11T06:05:44.536Z,96009.22
2023-04-11T06:08:14.534Z,96009.69
2023-04-11T06:10:42.816Z,96011.81
2023-04-11T06:13:11.156Z,96017.38
2023-04-11T06:15:39.977Z,96020.50
2023-04-11T06:18:09.766Z,96009.75
2023-04-11T06:20:38.203Z,96005.94
2023-04-11T06:23:06.574Z,96009.06
2023-04-11T06:25:34.930Z,95989.72
2023-04-11T06:28:03.379Z,95988.19
2023-04-11T06:30:31.964Z,95980.91
2023-04-11T06:33:00.583Z,95965.50
2023-04-11T06:35:30.413Z,95953.56
2023-04-11T06:37:59.025Z,95961.16
2023-04-11T06:40:36.912Z,95971.00
2023-04-11T06:43:05.436Z,95982.59
2023-04-11T06:45:33.829Z,95991.72
2023-04-11T06:48:02.281Z,95995.53
2023-04-11T06:50:32.137Z,95994.88
2023-04-11T06:53:00.918Z,96002.72
2023-04-11T06:55:29.287Z,96003.28
2023-04-11T06:57:57.769Z,95991.25
2023-04-11T07:00:27.529Z,95995.06
2023-04-11T07:02:56.364Z,95982.84
2023-04-11T07:05:24.994Z,95993.91
2023-04-11T07:07:55.634Z,95999.34
2023-04-11T07:10:25.004Z,96010.47
2023-04-11T07:12:53.477Z,96008.00
2023-04-11T07:15:23.833Z,96005.34
2023-04-11T07:17:52.956Z,96008.63
2023-04-11T07:20:21.723Z,95994.44
2023-04-11T07:22:50.035Z,96002.19
2023-04-11T07:25:22.516Z,96012.78
2023-04-11T07:28:00.537Z,96003.00
2023-04-11T07:30:29.191Z,96011.06
2023-04-11T07:32:57.653Z,96017.47
2023-04-11T07:35:26.103Z,96008.00
2023-04-11T07:37:54.541Z,96018.41
2023-04-11T07:40:24.254Z,96024.34
2023-04-11T07:42:52.640Z,96034.13
2023-04-11T07:45:21.454Z,96029.63
2023-04-11T07:47:50.186Z,96034.13
2023-04-11T07:50:18.804Z,96020.88
2023-04-11T07:52:47.607Z,96033.25
2023-04-11T07:55:16.127Z,96030.63
2023-04-11T07:57:55.966Z,96030.81
2023-04-11T08:00:24.988Z,96039.75
2023-04-11T08:02:53.609Z,96038.75
2023-04-11T08:05:22.308Z,96030.81
2023-04-11T08:07:50.690Z,96031.25
2023-04-11T08:10:19.318Z,96029.94
2023-04-11T08:12:48.013Z,96033.56
2023-04-11T08:15:18.002Z,96056.41
2023-04-11T08:17:46.628Z,96065.66
2023-04-11T08:20:15.128Z,96058.44
2023-04-11T08:22:44.796Z,96053.84
2023-04-11T08:25:16.129Z,96061.78
2023-04-11T08:27:44.728Z,96051.22
2023-04-11T08:30:16.800Z,96050.03
2023-04-11T08:32:46.702Z,96056.81
2023-04-11T08:35:15.135Z,96063.06
2023-04-11T08:37:44.450Z,96068.19
2023-04-11T08:40:12.897Z,96073.31
2023-04-11T08:42:41.377Z,96076.94
2023-04-11T08:45:10.948Z,96082.88
2023-04-11T08:47:39.448Z,96080.25
2023-04-11T08:50:10.572Z,96092.66
2023-04-11T08:52:40.805Z,96094.00
2023-04-11T08:55:10.360Z,96101.31
2023-04-11T08:57:39.122Z,96107.41
2023-04-11T09:00:16.851Z,96115.34
2023-04-11T09:02:59.855Z,96110.22
2023-04-11T09:05:31.128Z,96112.56
2023-04-11T09:08:00.824Z,96115.41
2023-04-11T09:10:29.279Z,96119.03
2023-04-11T09:12:58.244Z,96123.84
2023-04-11T09:15:28.591Z,96147.19
2023-04-11T09:18:00.662Z,96156.47
2023-04-11T09:20:31.376Z,96143.03
2023-04-11T09:23:00.165Z,96140.56
2023-04-11T09:25:29.930Z,96158.09
2023-04-11T09:28:11.900Z,96151.78
2023-04-11T09:30:49.311Z,96167.66
2023-04-11T09:33:23.413Z,96154.16
2023-04-11T09:35:54.888Z,96151.53
2023-04-11T09:38:31.890Z,96157.00
2023-04-11T09:41:01.461Z,96146.41
2023-04-11T09:43:48.794Z,96155.00
2023-04-11T09:46:21.207Z,96165.41
2023-04-11T09:48:51.130Z,96162.47
2023-04-11T09:51:35.223Z,96159.53
2023-04-11T09:54:06.278Z,96165.97
2023-04-11T09:56:35.523Z,96172.22
2023-04-11T09:59:05.480Z,96171.75
2023-04-11T10:01:34.457Z,96181.16
2023-04-11T10:04:04.350Z,96180.03
2023-04-11T10:06:40.902Z,96192.22
2023-04-11T10:09:11.492Z,96186.41
2023-04-11T10:11:43.011Z,96177.50
2023-04-11T10:14:45.368Z,96182.78
2023-04-11T10:17:24.397Z,96185.09
2023-04-11T10:19:56.975Z,96188.72
2023-04-11T10:23:05.953Z,96186.44
2023-04-11T10:25:49.735Z,96193.72
2023-04-11T10:28:34.769Z,96197.00
2023-04-11T10:31:04.949Z,96200.97
2023-04-11T10:33:36.108Z,96198.00
2023-04-11T10:36:06.592Z,96211.75
2023-04-11T10:38:51.720Z,96215.69
2023-04-11T10:41:28.879Z,96221.00
2023-04-11T10:44:14.878Z,96224.63
2023-04-11T10:46:48.286Z,96232.88
2023-04-11T10:49:39.637Z,96232.72
2023-04-11T10:52:20.852Z,96242.09
2023-04-11T10:54:50.691Z,96250.69
2023-04-11T10:57:23.354Z,96257.78
2023-04-11T10:59:58.848Z,96252.00
2023-04-11T11:02:42.316Z,96270.78
2023-04-11T11:05:23.213Z,96281.50
2023-04-11T11:07:53.955Z,96286.53
2023-04-11T11:10:39.447Z,96291.66
2023-04-11T11:13:09.537Z,96294.28
2023-04-11T11:15:41.535Z,96296.09
2023-04-11T11:18:10.934Z,96285.34
2023-04-11T11:20:40.652Z,96292.91
2023-04-11T11:23:11.515Z,96295.34
2023-04-11T11:25:39.866Z,96293.97
2023-04-11T11:28:12.564Z,96303.84
2023-04-11T11:30:53.977Z,96298.38
2023-04-11T11:33:26.465Z,96290.31
2023-04-11T11:35:57.776Z,96294.78
2023-04-11T11:38:28.230Z,96302.22
2023-04-11T11:40:57.158Z,96281.72
2023-04-11T11:43:28.384Z,96282.53
2023-04-11T11:46:12.095Z,96280.72
2023-04-11T11:48:40.973Z,96269.53
2023-04-11T11:51:09.466Z,96278.16
2023-04-11T11:53:37.973Z,96283.72
2023-04-11T11:56:17.377Z,96288.19
2023-04-11T11:58:47.497Z,96282.06
2023-04-11T12:01:17.903Z,96291.66
2023-04-11T12:03:51.465Z,96291.00
2023-04-11T12:06:20.612Z,96281.13
2023-04-11T12:08:53.781Z,96285.25
2023-04-11T12:11:22.544Z,96298.59
2023-04-11T12:13:54.992Z,96297.09
2023-04-11T12:16:24.328Z,96298.75
2023-04-11T12:18:52.935Z,96298.09
2023-04-11T12:21:21.395Z,96303.22
2023-04-11T12:23:49.835Z,96292.81
2023-04-11T12:26:21.302Z,96290.34
2023-04-11T12:28:50.605Z,96299.44
2023-04-11T12:31:21.735Z,96290.72
2023-04-11T12:33:50.758Z,96290.75
2023-04-11T12:36:21.592Z,96291.59
2023-04-11T12:38:50.218Z,96291.41
2023-04-11T12:41:32.071Z,96296.06
2023-04-11T12:44:02.522Z,96292.13
2023-04-11T12:46:33.930Z,96291.63
2023-04-11T12:49:02.437Z,96297.41
2023-04-11T12:51:31.321Z,96292.94
2023-04-11T12:53:59.887Z,96292.94
2023-04-11T12:56:28.287Z,96283.03
2023-04-11T12:58:57.041Z,96286.69
2023-04-11T13:01:26.342Z,96288.69
2023-04-11T13:03:56.280Z,96297.09
2023-04-11T13:06:24.804Z,96298.25
2023-04-11T13:08:53.286Z,96294.66
2023-04-11T13:11:21.717Z,96301.91
2023-04-11T13:13:50.536Z,96299.09
2023-04-11T13:16:20.749Z,96306.34
2023-04-11T13:18:49.224Z,96302.22
2023-04-11T13:21:21.226Z,96300.75
2023-04-11T13:23:50.540Z,96298.25
2023-04-11T13:26:20.322Z,96280.75
2023-04-11T13:28:49.946Z,96281.75
2023-04-11T13:31:19.476Z,96288.19
2023-04-11T13:33:48.205Z,96284.22
2023-04-11T13:36:20.975Z,96279.41
2023-04-11T13:38:51.479Z,96277.75
2023-04-11T13:41:21.097Z,96270.34
2023-04-11T13:43:49.945Z,96270.50
2023-04-11T13:46:21.737Z,96280.25
2023-04-11T13:48:50.303Z,96281.91
2023-04-11T13:51:22.313Z,96272.81
2023-04-11T13:53:50.759Z,96268.72
2023-04-11T13:56:20.540Z,96274.97
2023-04-11T13:58:48.946Z,96269.84
2023-04-11T14:01:17.420Z,96265.38
2023-04-11T14:03:45.902Z,96256.31
2023-04-11T14:06:14.596Z,96262.41
2023-04-11T14:08:44.345Z,96245.56
2023-04-11T14:11:12.689Z,96255.50
2023-04-11T14:13:41.071Z,96248.22
2023-04-11T14:16:09.877Z,96249.81
2023-04-11T14:18:38.420Z,96247.00
2023-04-11T14:21:08.111Z,96252.16
2023-04-11T14:23:36.906Z,96249.63
2023-04-11T14:26:07.125Z,96239.41
2023-04-11T14:28:36.070Z,96244.06
2023-04-11T14:31:04.610Z,96239.44
2023-04-11T14:33:33.039Z,96238.78
2023-04-11T14:36:01.884Z,96237.63
2023-04-11T14:38:30.709Z,96248.69
2023-04-11T14:40:59.155Z,96248.69
2023-04-11T14:43:28.890Z,96251.13
2023-04-11T14:45:57.586Z,96242.09
2023-04-11T14:48:27.379Z,96250.19
2023-04-11T14:50:55.942Z,96247.38
2023-04-11T14:53:24.370Z,96251.00
2023-04-11T14:55:52.864Z,96251.50
2023-04-11T14:58:21.980Z,96250.00
2023-04-11T15:00:51.737Z,96243.22
2023-04-11T15:03:21.294Z,96243.88
2023-04-11T15:05:49.938Z,96237.13
2023-04-11T15:08:18.312Z,96245.72
2023-04-11T15:10:46.729Z,96241.06
2023-04-11T15:13:15.163Z,96237.25
2023-04-11T15:15:43.553Z,96233.47
2023-04-11T15:18:28.058Z,96224.22
2023-04-11T15:21:01.980Z,96224.03
2023-04-11T15:23:31.093Z,96222.91
2023-04-11T15:26:00.973Z,96217.59
2023-04-11T15:28:33.828Z,96211.78
2023-04-11T15:31:02.868Z,96218.75
2023-04-11T15:33:32.767Z,96215.75
2023-04-11T15:36:02.424Z,96202.53
2023-04-11T15:38:30.976Z,96201.22
2023-04-11T15:41:00.413Z,96207.69
2023-04-11T15:43:28.928Z,96202.41
2023-04-11T15:45:57.372Z,96211.50
2023-04-11T15:48:26.039Z,96199.59
2023-04-11T15:50:55.994Z,96203.88
2023-04-11T15:53:24.386Z,96204.88
2023-04-11T15:55:52.907Z,96205.53
2023-04-11T15:58:22.101Z,96204.06
2023-04-11T16:00:51.415Z,96202.88
2023-04-11T16:03:20.030Z,96202.53
2023-04-11T16:05:50.894Z,96196.75
2023-04-11T16:08:21.891Z,96185.13
2023-04-11T16:10:50.335Z,96188.34
2023-04-11T16:13:18.761Z,96187.63
2023-04-11T16:15:47.307Z,96185.91
2023-04-11T16:18:16.746Z,96183.34
2023-04-11T16:20:45.127Z,96180.22
2023-04-11T16:23:13.529Z,96185.75
2023-04-11T16:25:45.609Z,96180.53
2023-04-11T16:28:15.459Z,96184.72
2023-04-11T16:30:43.830Z,96192.75
2023-04-11T16:33:12.788Z,96187.50
2023-04-11T16:35:41.200Z,96189.75
2023-04-11T16:38:09.700Z,96190.47
2023-04-11T16:40:38.034Z,96190.78
2023-04-11T16:43:07.741Z,96176.09
2023-04-11T16:45:36.345Z,96182.91
2023-04-11T16:48:05.963Z,96183.41
2023-04-11T16:50:34.345Z,96171.53
2023-04-11T16:53:02.854Z,96169.25
2023-04-11T16:55:31.428Z,96171.41
2023-04-11T16:57:59.786Z,96174.41
2023-04-11T17:00:30.147Z,96162.19
2023-04-11T17:02:58.790Z,96172.28
2023-04-11T17:05:27.483Z,96174.47
2023-04-11T17:07:56.003Z,96175.00
2023-04-11T17:10:24.517Z,96169.38
2023-04-11T17:12:54.058Z,96171.06
2023-04-11T17:15:24.178Z,96182.00
2023-04-11T17:17:53.956Z,96182.50
2023-04-11T17:20:24.339Z,96170.34
2023-04-11T17:22:52.762Z,96177.13
2023-04-11T17:25:21.342Z,96173.31
2023-04-11T17:27:49.729Z,96176.00
2023-04-11T17:30:18.690Z,96179.28
2023-04-11T17:32:48.796Z,96173.53
2023-04-11T17:35:18.711Z,96180.13
2023-04-11T17:37:47.842Z,96185.94
2023-04-11T17:40:17.409Z,96191.75
2023-04-11T17:42:46.673Z,96193.91
2023-04-11T17:45:18.200Z,96185.63
2023-04-11T17:47:47.767Z,96188.78
2023-04-11T17:50:20.135Z,96190.44
2023-04-11T17:52:48.653Z,96192.94
2023-04-11T17:55:18.764Z,96195.56
2023-04-11T17:57:49.079Z,96192.78
2023-04-11T18:00:22.833Z,96191.78
2023-04-11T18:02:54.785Z,96189.81
2023-04-11T18:05:28.338Z,96183.38
2023-04-11T18:08:00.786Z,96186.34
2023-04-11T18:10:30.328Z,96188.34
2023-04-11T18:12:59.677Z,96186.00
2023-04-11T18:15:28.289Z,96182.88
2023-04-11T18:17:56.824Z,96180.72
2023-04-11T18:20:26.869Z,96185.81
2023-04-11T18:22:56.438Z,96186.97
2023-04-11T18:25:25.973Z,96187.31
2023-04-11T18:27:54.487Z,96193.06
2023-04-11T18:30:25.098Z,96195.41
2023-04-11T18:32:54.716Z,96194.91
2023-04-11T18:35:28.080Z,96198.50
2023-04-11T18:37:56.835Z,96208.09
2023-04-11T18:40:26.613Z,96200.47
2023-04-11T18:42:56.474Z,96202.47
2023-04-11T18:45:25.786Z,96213.16
2023-04-11T18:47:54.179Z,96208.91
2023-04-11T18:50:24.556Z,96201.97
2023-04-11T18:52:56.634Z,96207.56
2023-04-11T18:55:28.610Z,96206.06
2023-04-11T18:58:00.075Z,96208.69
2023-04-11T19:00:30.236Z,96202.28
2023-04-11T19:02:58.845Z,96205.75
2023-04-11T19:05:28.143Z,96205.09
2023-04-11T19:07:58.070Z,96205.41
2023-04-11T19:10:26.429Z,96206.41
2023-04-11T19:12:54.808Z,96213.97
2023-04-11T19:15:24.857Z,96209.19
2023-04-11T19:17:53.316Z,96208.66
2023-04-11T19:20:22.633Z,96206.03
2023-04-11T19:22:52.351Z,96202.38
2023-04-11T19:25:22.939Z,96200.75
2023-04-11T19:27:51.596Z,96194.66
2023-04-11T19:30:20.033Z,96188.88
2023-04-11T19:32:48.710Z,96198.91
2023-04-11T19:35:21.420Z,96186.69
2023-04-11T19:37:50.196Z,96183.25
2023-04-11T19:40:24.589Z,96185.88
2023-04-11T19:42:54.528Z,96192.97
2023-04-11T19:45:23.892Z,96195.09
2023-04-11T19:47:52.877Z,96199.72
2023-04-11T19:50:23.216Z,96199.19
2023-04-11T19:52:56.784Z,96204.63
2023-04-11T19:55:27.397Z,96200.34
2023-04-11T19:57:57.170Z,96191.78
2023-04-11T20:00:31.808Z,96192.91
2023-04-11T20:03:00.461Z,96189.91
2023-04-11T20:05:31.972Z,96190.06
2023-04-11T20:08:00.315Z,96183.75
2023-04-11T20:10:29.115Z,96189.38
2023-04-11T20:12:58.828Z,96188.38
2023-04-11T20:15:27.278Z,96185.88
2023-04-11T20:17:55.723Z,96189.66
2023-04-11T20:20:28.353Z,96180.72
2023-04-11T20:22:57.576Z,96180.41
2023-04-11T20:25:26.201Z,96178.06
2023-04-11T20:27:54.594Z,96178.06
2023-04-11T20:30:25.835Z,96171.81
2023-04-11T20:32:54.691Z,96167.81
2023-04-11T20:35:23.681Z,96173.72
2023-04-11T20:37:54.075Z,96163.16
2023-04-11T20:40:22.633Z,96159.47
2023-04-11T20:42:51.040Z,96159.81
2023-04-11T20:45:21.902Z,96155.84
2023-04-11T20:47:51.973Z,96160.38
2023-04-11T20:50:21.579Z,96167.69
2023-04-11T20:52:52.454Z,96159.91
2023-04-11T20:55:21.784Z,96150.59
2023-04-11T20:58:00.349Z,96152.66
2023-04-11T21:00:29.432Z,96150.47
2023-04-11T21:02:59.366Z,96146.06
2023-04-11T21:05:27.888Z,96159.03
2023-04-11T21:07:58.376Z,96149.03
2023-04-11T21:10:26.826Z,96149.56
2023-04-11T21:12:55.320Z,96147.59
2023-04-11T21:15:26.566Z,96155.19
2023-04-11T21:17:55.144Z,96157.00
2023-04-11T21:20:25.138Z,96151.06
2023-04-11T21:22:54.918Z,96150.38
2023-04-11T21:25:24.526Z,96145.72
2023-04-11T21:27:52.956Z,96142.13
2023-04-11T21:30:21.691Z,96137.69
2023-04-11T21:32:50.212Z,96132.72
2023-04-11T21:35:18.557Z,96133.19
2023-04-11T21:37:56.955Z,96123.66
2023-04-11T21:40:26.934Z,96125.75
2023-04-11T21:42:56.005Z,96123.44
2023-04-11T21:45:25.366Z,96122.75
2023-04-11T21:47:53.816Z,96122.38
2023-04-11T21:50:22.286Z,96122.38
2023-04-11T21:53:01.988Z,96113.81
2023-04-11T21:55:30.347Z,96112.47
2023-04-11T21:57:59.027Z,96103.09
2023-04-11T22:00:27.442Z,96110.59
2023-04-11T22:02:56.037Z,96109.25
2023-04-11T22:05:27.516Z,96098.88
2023-04-11T22:08:11.771Z,96091.66
2023-04-11T22:10:47.837Z,96092.66
2023-04-11T22:13:19.000Z,96083.09
2023-04-11T22:15:48.762Z,96079.78
2023-04-11T22:18:17.274Z,96088.00
2023-04-11T22:20:47.006Z,96082.75
2023-04-11T22:23:17.275Z,96082.75
2023-04-11T22:25:45.756Z,96074.00
2023-04-11T22:28:15.684Z,96075.81
2023-04-11T22:30:44.089Z,96073.31
2023-04-11T22:33:13.715Z,96067.41
2023-04-11T22:35:42.502Z,96072.97
2023-04-11T22:38:11.609Z,96060.78
2023-04-11T22:40:42.650Z,96054.72
2023-04-11T22:43:11.022Z,96049.59
2023-04-11T22:45:40.008Z,96055.69
2023-04-11T22:48:08.741Z,96052.38
2023-04-11T22:50:37.949Z,96050.88
2023-04-11T22:53:09.510Z,96043.47
2023-04-11T22:55:39.998Z,96059.66
2023-04-11T22:58:10.027Z,96044.22
2023-04-11T23:00:38.662Z,96041.59
2023-04-11T23:03:07.356Z,96038.28
2023-04-11T23:05:39.551Z,96029.25
2023-04-11T23:08:08.867Z,96023.88
2023-04-11T23:10:37.235Z,96028.13
2023-04-11T23:13:05.733Z,96027.16
2023-04-11T23:15:35.560Z,96019.28
2023-04-11T23:18:04.114Z,96014.84
2023-04-11T23:20:35.538Z,96012.06
2023-04-11T23:23:08.790Z,96014.56
2023-04-11T23:25:40.674Z,96009.13
2023-04-11T23:28:09.366Z,96009.81
2023-04-11T23:30:39.179Z,95996.81
2023-04-11T23:33:08.664Z,95996.81
2023-04-11T23:35:37.786Z,95994.06
2023-04-11T23:38:06.775Z,95999.66
2023-04-11T23:40:35.169Z,95990.94
2023-04-11T23:43:03.514Z,95983.75
2023-04-11T23:45:32.007Z,95980.63
2023-04-11T23:48:01.790Z,95962.75
2023-04-11T23:50:30.202Z,95965.09
2023-04-11T23:52:58.675Z,95956.22
2023-04-11T23:55:29.849Z,95952.28
2023-04-11T23:57:58.144Z,95950.19
